Volga-4011 — UBNJ — position and weather

sailwx.info

Track history (hours):
 
Tides and Currents Weather Stations Pressure Air Temp Water Temp Dewpoint Dewpoint Depression Visibility Wind Speed Wind Dir Waves Ship Positions

Volga-4011

Last reported at 2016-Aug-24 09:24 UTC. Time now 2016-Aug-29 05:29 UTC.
Position N 37°17' E 129°49'.

Length 140 m; draft 3.6 m.

Type: Cargo ship. MMSI: 273358200.

Date/timePositionNaut miles runAvg speedWind from/ knotsBaromVisibWave heightAir tempDewpointWater temp
2016-Aug-24 09:24N 37°17' E 129°49'5510.4
2016-Aug-24 04:03N 36°21' E 129°50'5 9.8
2016-Aug-24 03:33N 36°16' E 129°49'10 9.5
2016-Aug-24 02:33N 36°07' E 129°48'10 9.6
2016-Aug-24 01:33N 35°58' E 129°47'  
2016-Aug-21 12:27N 31°18' E 121°43'1111.8
2016-Aug-21 11:32N 31°24' E 121°33'1110.7
2016-Aug-21 10:33N 31°31' E 121°23'1110.6
2016-Aug-21 09:33N 31°38' E 121°14'5 5.3
2016-Aug-21 08:31N 31°42' E 121°09'0 0.0
2016-Aug-21 07:17N 31°42' E 121°09'0 0.0
2016-Aug-21 06:29N 31°42' E 121°09'0 0.0
2016-Aug-21 05:27N 31°42' E 121°09'0 0.0
2016-Aug-21 04:19N 31°42' E 121°09'0 0.0
2016-Aug-21 03:11N 31°42' E 121°09'0 0.0
2016-Aug-21 02:32N 31°42' E 121°09'0 0.0
2016-Aug-21 01:30N 31°42' E 121°09'0 0.0
2016-Aug-21 00:27N 31°42' E 121°09'0 0.0
2016-Aug-20 23:04N 31°42' E 121°09'0 0.0
2016-Aug-20 22:20N 31°42' E 121°09'0 0.1
2016-Aug-20 21:29N 31°42' E 121°09'0 0.0
2016-Aug-20 16:15N 31°42' E 121°09'0 0.1
2016-Aug-20 15:33N 31°42' E 121°09'0 0.0
2016-Aug-20 14:28N 31°42' E 121°09'0 0.1
2016-Aug-20 13:29N 31°42' E 121°09'0 0.1
2016-Aug-20 12:29N 31°42' E 121°09'0 0.0
2016-Aug-20 11:18N 31°42' E 121°09'4 1.0
2016-Aug-20 07:26N 31°40' E 121°13'1 1.4
2016-Aug-20 06:31N 31°40' E 121°14'0 0.1
2016-Aug-20 05:31N 31°40' E 121°14'0 0.1
2016-Aug-20 04:32N 31°40' E 121°14'0 0.1
2016-Aug-20 03:33N 31°39' E 121°15'0 0.0
2016-Aug-20 02:30N 31°39' E 121°15'0 0.0
2016-Aug-20 01:31N 31°39' E 121°15'0 0.0
2016-Aug-20 00:29N 31°39' E 121°15'0 0.0
2016-Aug-19 23:32N 31°39' E 121°15'0 0.1
2016-Aug-19 22:33N 31°39' E 121°14'0 0.0
2016-Aug-19 21:28N 31°39' E 121°14'0 0.1
2016-Aug-19 20:31N 31°40' E 121°14'0 0.1
2016-Aug-19 19:32N 31°40' E 121°14'0 0.0
2016-Aug-19 18:33N 31°40' E 121°14'0 0.0
2016-Aug-19 17:33N 31°40' E 121°14'0 0.0
2016-Aug-19 16:31N 31°40' E 121°14'0 0.1
2016-Aug-19 15:29N 31°39' E 121°14'0 0.1
2016-Aug-19 14:32N 31°39' E 121°14'0 0.0
2016-Aug-19 13:30N 31°39' E 121°15'0 0.0
2016-Aug-19 12:33N 31°39' E 121°15'0 0.0
2016-Aug-19 11:31N 31°39' E 121°15'0 0.0
2016-Aug-19 10:32N 31°39' E 121°15'0 0.1
2016-Aug-19 09:32N 31°39' E 121°14'0 0.0
2016-Aug-19 08:33N 31°40' E 121°14'0 0.2
2016-Aug-19 07:31N 31°40' E 121°14'0 0.0
2016-Aug-19 06:31N 31°40' E 121°14'0 0.0
2016-Aug-19 05:32N 31°40' E 121°14'0 0.0
2016-Aug-19 04:33N 31°40' E 121°14'4 3.7
2016-Aug-19 03:33N 31°41' E 121°10'1 0.9
2016-Aug-19 02:06N 31°42' E 121°09'1 1.9
2016-Aug-19 01:33N 31°41' E 121°10'4 4.0
2016-Aug-19 00:33N 31°40' E 121°14'0 0.1
2016-Aug-18 23:33N 31°40' E 121°14'0 0.0
2016-Aug-18 22:31N 31°40' E 121°14'0 0.0
2016-Aug-18 21:32N 31°40' E 121°14'0 0.1
2016-Aug-18 20:30N 31°40' E 121°14'0 0.2
2016-Aug-18 19:26N 31°40' E 121°14'0 0.0
2016-Aug-18 18:23N 31°40' E 121°14'0 0.0
2016-Aug-18 17:33N 31°40' E 121°14'0 0.0
2016-Aug-18 16:31N 31°40' E 121°14'0 0.0
2016-Aug-18 15:28N 31°40' E 121°14'0 0.0
2016-Aug-18 14:32N 31°40' E 121°14'0 0.1
2016-Aug-18 13:32N 31°40' E 121°14'0 0.1
2016-Aug-18 12:30N 31°40' E 121°14'0 0.0
2016-Aug-18 11:31N 31°40' E 121°14'0 0.0
2016-Aug-18 10:31N 31°40' E 121°14'0 0.0
2016-Aug-18 09:32N 31°40' E 121°14'0 0.0
2016-Aug-18 08:24N 31°40' E 121°14'0 0.1
2016-Aug-18 07:33N 31°40' E 121°14'0 0.1
2016-Aug-18 06:31N 31°40' E 121°14'0 0.0
2016-Aug-18 05:32N 31°40' E 121°14'0 0.0
2016-Aug-18 04:32N 31°40' E 121°14'0 0.0
2016-Aug-18 03:33N 31°40' E 121°14'0 0.1
2016-Aug-18 02:28N 31°40' E 121°14'0 0.0
2016-Aug-18 01:33N 31°40' E 121°14'5 5.0
2016-Aug-18 00:32N 31°41' E 121°09'0 0.0
2016-Aug-17 23:20N 31°41' E 121°09'0 0.0
2016-Aug-17 22:33N 31°41' E 121°09'0 0.0
2016-Aug-17 21:22N 31°41' E 121°09'0 0.0
2016-Aug-17 20:26N 31°41' E 121°09'0 0.0
2016-Aug-17 19:32N 31°41' E 121°09'0 0.0
2016-Aug-17 18:30N 31°41' E 121°09'0 0.0
2016-Aug-17 17:30N 31°42' E 121°09'0 0.0
2016-Aug-17 16:31N 31°41' E 121°09'0 0.0
2016-Aug-17 15:32N 31°41' E 121°09'0 0.0
2016-Aug-17 14:32N 31°42' E 121°09'0 0.0
2016-Aug-17 13:33N 31°42' E 121°09'0 0.0
2016-Aug-17 12:28N 31°41' E 121°09'0 0.0
2016-Aug-17 11:32N 31°41' E 121°09'0 0.0
2016-Aug-17 10:32N 31°41' E 121°09'0 0.0
2016-Aug-17 09:33N 31°41' E 121°09'0 0.0
2016-Aug-17 08:33N 31°41' E 121°09'0 0.0
2016-Aug-17 07:31N 31°41' E 121°09'0 0.0
2016-Aug-17 06:08N 31°42' E 121°09'0 0.0
2016-Aug-17 04:21N 31°41' E 121°09'0 0.0
2016-Aug-17 02:28N 31°41' E 121°09'0 0.0
2016-Aug-17 01:32N 31°42' E 121°09'0 0.0
2016-Aug-17 00:30N 31°41' E 121°09'0 0.0
2016-Aug-16 23:30N 31°41' E 121°09'0 0.0
2016-Aug-16 22:31N 31°41' E 121°09'0 0.0
2016-Aug-16 21:29N 31°41' E 121°09'0 0.0
2016-Aug-16 20:26N 31°41' E 121°09'0 0.0
2016-Aug-16 19:33N 31°41' E 121°09'0 0.0
2016-Aug-16 18:31N 31°41' E 121°09'0 0.0
2016-Aug-16 17:28N 31°41' E 121°09'0 0.0
2016-Aug-16 16:20N 31°41' E 121°09'0 0.0
2016-Aug-16 14:24N 31°41' E 121°09'0 0.0
2016-Aug-16 13:31N 31°42' E 121°09'0 0.0
2016-Aug-16 12:32N 31°41' E 121°09'0 0.0
2016-Aug-16 11:32N 31°42' E 121°09'2 2.1
2016-Aug-16 10:33N 31°41' E 121°11'3 2.9
2016-Aug-16 09:31N 31°39' E 121°14'0 0.0
2016-Aug-16 08:32N 31°39' E 121°14'0 0.0
2016-Aug-16 02:11N 31°39' E 121°14'0 0.0
2016-Aug-16 01:33N 31°39' E 121°14'1 1.0
2016-Aug-16 00:26N 31°39' E 121°15'1 0.2
2016-Aug-15 21:29N 31°39' E 121°16'0 0.0
2016-Aug-15 20:18N 31°39' E 121°16'0 0.0
2016-Aug-15 08:31N 31°39' E 121°16'0 0.0
2016-Aug-14 16:28N 31°39' E 121°16'0 0.2
2016-Aug-14 13:33N 31°38' E 121°16'10 9.0
2016-Aug-14 12:28N 31°31' E 121°24'9 9.4
2016-Aug-14 11:33N 31°25' E 121°31'9 9.3
2016-Aug-14 10:33N 31°21' E 121°40'  
Track history (hours):
 
Tides and Currents Weather Stations Pressure Air Temp Water Temp Dewpoint Dewpoint Depression Visibility Wind Speed Wind Dir Waves Ship Positions

Volga-4011

Last reported at 2016-Aug-24 09:24 UTC. Time now 2016-Aug-29 05:29 UTC.
Position N 37°17' E 129°49'.

Length 140 m; draft 3.6 m.

Type: Cargo ship. MMSI: 273358200.

Date/timePositionNaut miles runAvg speedWind from/ knotsBaromVisibWave heightAir tempDewpointWater temp
2016-Aug-24 09:24N 37°17' E 129°49'5510.4
2016-Aug-24 04:03N 36°21' E 129°50'5 9.8
2016-Aug-24 03:33N 36°16' E 129°49'10 9.5
2016-Aug-24 02:33N 36°07' E 129°48'10 9.6
2016-Aug-24 01:33N 35°58' E 129°47'  
2016-Aug-21 12:27N 31°18' E 121°43'1111.8
2016-Aug-21 11:32N 31°24' E 121°33'1110.7
2016-Aug-21 10:33N 31°31' E 121°23'1110.6
2016-Aug-21 09:33N 31°38' E 121°14'5 5.3
2016-Aug-21 08:31N 31°42' E 121°09'0 0.0
2016-Aug-21 07:17N 31°42' E 121°09'0 0.0
2016-Aug-21 06:29N 31°42' E 121°09'0 0.0
2016-Aug-21 05:27N 31°42' E 121°09'0 0.0
2016-Aug-21 04:19N 31°42' E 121°09'0 0.0
2016-Aug-21 03:11N 31°42' E 121°09'0 0.0
2016-Aug-21 02:32N 31°42' E 121°09'0 0.0
2016-Aug-21 01:30N 31°42' E 121°09'0 0.0
2016-Aug-21 00:27N 31°42' E 121°09'0 0.0
2016-Aug-20 23:04N 31°42' E 121°09'0 0.0
2016-Aug-20 22:20N 31°42' E 121°09'0 0.1
2016-Aug-20 21:29N 31°42' E 121°09'0 0.0
2016-Aug-20 16:15N 31°42' E 121°09'0 0.1
2016-Aug-20 15:33N 31°42' E 121°09'0 0.0
2016-Aug-20 14:28N 31°42' E 121°09'0 0.1
2016-Aug-20 13:29N 31°42' E 121°09'0 0.1
2016-Aug-20 12:29N 31°42' E 121°09'0 0.0
2016-Aug-20 11:18N 31°42' E 121°09'4 1.0
2016-Aug-20 07:26N 31°40' E 121°13'1 1.4
2016-Aug-20 06:31N 31°40' E 121°14'0 0.1
2016-Aug-20 05:31N 31°40' E 121°14'0 0.1
2016-Aug-20 04:32N 31°40' E 121°14'0 0.1
2016-Aug-20 03:33N 31°39' E 121°15'0 0.0
2016-Aug-20 02:30N 31°39' E 121°15'0 0.0
2016-Aug-20 01:31N 31°39' E 121°15'0 0.0
2016-Aug-20 00:29N 31°39' E 121°15'0 0.0
2016-Aug-19 23:32N 31°39' E 121°15'0 0.1
2016-Aug-19 22:33N 31°39' E 121°14'0 0.0
2016-Aug-19 21:28N 31°39' E 121°14'0 0.1
2016-Aug-19 20:31N 31°40' E 121°14'0 0.1
2016-Aug-19 19:32N 31°40' E 121°14'0 0.0
2016-Aug-19 18:33N 31°40' E 121°14'0 0.0
2016-Aug-19 17:33N 31°40' E 121°14'0 0.0
2016-Aug-19 16:31N 31°40' E 121°14'0 0.1
2016-Aug-19 15:29N 31°39' E 121°14'0 0.1
2016-Aug-19 14:32N 31°39' E 121°14'0 0.0
2016-Aug-19 13:30N 31°39' E 121°15'0 0.0
2016-Aug-19 12:33N 31°39' E 121°15'0 0.0
2016-Aug-19 11:31N 31°39' E 121°15'0 0.0
2016-Aug-19 10:32N 31°39' E 121°15'0 0.1
2016-Aug-19 09:32N 31°39' E 121°14'0 0.0
2016-Aug-19 08:33N 31°40' E 121°14'0 0.2
2016-Aug-19 07:31N 31°40' E 121°14'0 0.0
2016-Aug-19 06:31N 31°40' E 121°14'0 0.0
2016-Aug-19 05:32N 31°40' E 121°14'0 0.0
2016-Aug-19 04:33N 31°40' E 121°14'4 3.7
2016-Aug-19 03:33N 31°41' E 121°10'1 0.9
2016-Aug-19 02:06N 31°42' E 121°09'1 1.9
2016-Aug-19 01:33N 31°41' E 121°10'4 4.0
2016-Aug-19 00:33N 31°40' E 121°14'0 0.1
2016-Aug-18 23:33N 31°40' E 121°14'0 0.0
2016-Aug-18 22:31N 31°40' E 121°14'0 0.0
2016-Aug-18 21:32N 31°40' E 121°14'0 0.1
2016-Aug-18 20:30N 31°40' E 121°14'0 0.2
2016-Aug-18 19:26N 31°40' E 121°14'0 0.0
2016-Aug-18 18:23N 31°40' E 121°14'0 0.0
2016-Aug-18 17:33N 31°40' E 121°14'0 0.0
2016-Aug-18 16:31N 31°40' E 121°14'0 0.0
2016-Aug-18 15:28N 31°40' E 121°14'0 0.0
2016-Aug-18 14:32N 31°40' E 121°14'0 0.1
2016-Aug-18 13:32N 31°40' E 121°14'0 0.1
2016-Aug-18 12:30N 31°40' E 121°14'0 0.0
2016-Aug-18 11:31N 31°40' E 121°14'0 0.0
2016-Aug-18 10:31N 31°40' E 121°14'0 0.0
2016-Aug-18 09:32N 31°40' E 121°14'0 0.0
2016-Aug-18 08:24N 31°40' E 121°14'0 0.1
2016-Aug-18 07:33N 31°40' E 121°14'0 0.1
2016-Aug-18 06:31N 31°40' E 121°14'0 0.0
2016-Aug-18 05:32N 31°40' E 121°14'0 0.0
2016-Aug-18 04:32N 31°40' E 121°14'0 0.0
2016-Aug-18 03:33N 31°40' E 121°14'0 0.1
2016-Aug-18 02:28N 31°40' E 121°14'0 0.0
2016-Aug-18 01:33N 31°40' E 121°14'5 5.0
2016-Aug-18 00:32N 31°41' E 121°09'0 0.0
2016-Aug-17 23:20N 31°41' E 121°09'0 0.0
2016-Aug-17 22:33N 31°41' E 121°09'0 0.0
2016-Aug-17 21:22N 31°41' E 121°09'0 0.0
2016-Aug-17 20:26N 31°41' E 121°09'0 0.0
2016-Aug-17 19:32N 31°41' E 121°09'0 0.0
2016-Aug-17 18:30N 31°41' E 121°09'0 0.0
2016-Aug-17 17:30N 31°42' E 121°09'0 0.0
2016-Aug-17 16:31N 31°41' E 121°09'0 0.0
2016-Aug-17 15:32N 31°41' E 121°09'0 0.0
2016-Aug-17 14:32N 31°42' E 121°09'0 0.0
2016-Aug-17 13:33N 31°42' E 121°09'0 0.0
2016-Aug-17 12:28N 31°41' E 121°09'0 0.0
2016-Aug-17 11:32N 31°41' E 121°09'0 0.0
2016-Aug-17 10:32N 31°41' E 121°09'0 0.0
2016-Aug-17 09:33N 31°41' E 121°09'0 0.0
2016-Aug-17 08:33N 31°41' E 121°09'0 0.0
2016-Aug-17 07:31N 31°41' E 121°09'0 0.0
2016-Aug-17 06:08N 31°42' E 121°09'0 0.0
2016-Aug-17 04:21N 31°41' E 121°09'0 0.0
2016-Aug-17 02:28N 31°41' E 121°09'0 0.0
2016-Aug-17 01:32N 31°42' E 121°09'0 0.0
2016-Aug-17 00:30N 31°41' E 121°09'0 0.0
2016-Aug-16 23:30N 31°41' E 121°09'0 0.0
2016-Aug-16 22:31N 31°41' E 121°09'0 0.0
2016-Aug-16 21:29N 31°41' E 121°09'0 0.0
2016-Aug-16 20:26N 31°41' E 121°09'0 0.0
2016-Aug-16 19:33N 31°41' E 121°09'0 0.0
2016-Aug-16 18:31N 31°41' E 121°09'0 0.0
2016-Aug-16 17:28N 31°41' E 121°09'0 0.0
2016-Aug-16 16:20N 31°41' E 121°09'0 0.0
2016-Aug-16 14:24N 31°41' E 121°09'0 0.0
2016-Aug-16 13:31N 31°42' E 121°09'0 0.0
2016-Aug-16 12:32N 31°41' E 121°09'0 0.0
2016-Aug-16 11:32N 31°42' E 121°09'2 2.1
2016-Aug-16 10:33N 31°41' E 121°11'3 2.9
2016-Aug-16 09:31N 31°39' E 121°14'0 0.0
2016-Aug-16 08:32N 31°39' E 121°14'0 0.0
2016-Aug-16 02:11N 31°39' E 121°14'0 0.0
2016-Aug-16 01:33N 31°39' E 121°14'1 1.0
2016-Aug-16 00:26N 31°39' E 121°15'1 0.2
2016-Aug-15 21:29N 31°39' E 121°16'0 0.0
2016-Aug-15 20:18N 31°39' E 121°16'0 0.0
2016-Aug-15 08:31N 31°39' E 121°16'0 0.0
2016-Aug-14 16:28N 31°39' E 121°16'0 0.2
2016-Aug-14 13:33N 31°38' E 121°16'10 9.0
2016-Aug-14 12:28N 31°31' E 121°24'9 9.4
2016-Aug-14 11:33N 31°25' E 121°31'9 9.3
2016-Aug-14 10:33N 31°21' E 121°40'  

Dump ship's entire track history